sensor_id;sensor_type;location;lat;lon;timestamp;P1;durP1;ratioP1;P2;durP2;ratioP2
54271;SDS011;40184;53.362;5.216;2023-12-20T00:01:40;44.10;;;7.90;;
54271;SDS011;40184;53.362;5.216;2023-12-20T00:04:06;26.98;;;6.55;;
54271;SDS011;40184;53.362;5.216;2023-12-20T00:06:32;34.47;;;6.07;;
54271;SDS011;40184;53.362;5.216;2023-12-20T00:08:58;26.15;;;5.45;;
54271;SDS011;40184;53.362;5.216;2023-12-20T00:11:24;32.63;;;6.95;;
54271;SDS011;40184;53.362;5.216;2023-12-20T00:13:50;30.25;;;6.38;;
54271;SDS011;40184;53.362;5.216;2023-12-20T00:16:16;36.05;;;6.90;;
54271;SDS011;40184;53.362;5.216;2023-12-20T00:18:43;30.10;;;5.43;;
54271;SDS011;40184;53.362;5.216;2023-12-20T00:21:09;30.95;;;5.93;;
54271;SDS011;40184;53.362;5.216;2023-12-20T00:23:35;28.42;;;6.07;;
54271;SDS011;40184;53.362;5.216;2023-12-20T00:26:01;32.40;;;7.03;;
54271;SDS011;40184;53.362;5.216;2023-12-20T00:28:27;37.78;;;5.65;;
54271;SDS011;40184;53.362;5.216;2023-12-20T00:30:53;42.72;;;6.93;;
54271;SDS011;40184;53.362;5.216;2023-12-20T00:33:19;31.30;;;6.38;;
54271;SDS011;40184;53.362;5.216;2023-12-20T00:35:45;37.08;;;6.93;;
54271;SDS011;40184;53.362;5.216;2023-12-20T00:38:11;33.35;;;5.07;;
54271;SDS011;40184;53.362;5.216;2023-12-20T00:40:37;34.88;;;6.60;;
54271;SDS011;40184;53.362;5.216;2023-12-20T00:43:03;32.83;;;7.57;;
54271;SDS011;40184;53.362;5.216;2023-12-20T00:45:29;37.88;;;6.00;;
54271;SDS011;40184;53.362;5.216;2023-12-20T00:47:55;30.58;;;7.82;;
54271;SDS011;40184;53.362;5.216;2023-12-20T00:50:22;38.10;;;6.38;;
54271;SDS011;40184;53.362;5.216;2023-12-20T00:52:48;31.08;;;5.15;;
54271;SDS011;40184;53.362;5.216;2023-12-20T00:55:14;33.58;;;7.90;;
54271;SDS011;40184;53.362;5.216;2023-12-20T00:57:40;35.63;;;7.85;;
54271;SDS011;40184;53.362;5.216;2023-12-20T01:00:06;29.38;;;7.40;;
54271;SDS011;40184;53.362;5.216;2023-12-20T01:02:34;39.38;;;6.85;;
54271;SDS011;40184;53.362;5.216;2023-12-20T01:05:01;37.35;;;6.50;;
54271;SDS011;40184;53.362;5.216;2023-12-20T01:07:27;35.28;;;7.80;;
54271;SDS011;40184;53.362;5.216;2023-12-20T01:09:54;43.78;;;6.97;;
54271;SDS011;40184;53.362;5.216;2023-12-20T01:12:20;22.90;;;5.72;;
54271;SDS011;40184;53.362;5.216;2023-12-20T01:14:46;32.10;;;7.70;;
54271;SDS011;40184;53.362;5.216;2023-12-20T01:17:12;31.92;;;6.85;;
54271;SDS011;40184;53.362;5.216;2023-12-20T01:19:38;28.90;;;6.32;;
54271;SDS011;40184;53.362;5.216;2023-12-20T01:22:04;29.45;;;7.35;;
54271;SDS011;40184;53.362;5.216;2023-12-20T01:24:30;32.40;;;6.90;;
54271;SDS011;40184;53.362;5.216;2023-12-20T01:26:56;39.88;;;8.40;;
54271;SDS011;40184;53.362;5.216;2023-12-20T01:29:22;31.10;;;6.75;;
54271;SDS011;40184;53.362;5.216;2023-12-20T01:31:49;38.72;;;8.60;;
54271;SDS011;40184;53.362;5.216;2023-12-20T01:34:15;42.88;;;7.55;;
54271;SDS011;40184;53.362;5.216;2023-12-20T01:36:41;38.05;;;8.00;;
54271;SDS011;40184;53.362;5.216;2023-12-20T01:39:07;37.10;;;6.07;;
54271;SDS011;40184;53.362;5.216;2023-12-20T01:41:33;33.40;;;7.15;;
54271;SDS011;40184;53.362;5.216;2023-12-20T01:43:59;34.47;;;7.22;;
54271;SDS011;40184;53.362;5.216;2023-12-20T01:46:25;37.15;;;7.68;;
54271;SDS011;40184;53.362;5.216;2023-12-20T01:48:52;27.45;;;7.72;;
54271;SDS011;40184;53.362;5.216;2023-12-20T01:51:18;28.55;;;6.50;;
54271;SDS011;40184;53.362;5.216;2023-12-20T01:53:45;38.25;;;7.85;;
54271;SDS011;40184;53.362;5.216;2023-12-20T01:56:12;33.45;;;7.07;;
54271;SDS011;40184;53.362;5.216;2023-12-20T01:58:41;37.33;;;7.95;;
54271;SDS011;40184;53.362;5.216;2023-12-20T02:01:08;34.78;;;8.38;;
54271;SDS011;40184;53.362;5.216;2023-12-20T02:03:34;32.08;;;6.90;;
54271;SDS011;40184;53.362;5.216;2023-12-20T02:06:02;26.45;;;5.85;;
54271;SDS011;40184;53.362;5.216;2023-12-20T02:08:28;33.05;;;7.60;;
54271;SDS011;40184;53.362;5.216;2023-12-20T02:10:54;36.10;;;7.85;;
54271;SDS011;40184;53.362;5.216;2023-12-20T02:13:21;50.70;;;9.13;;
54271;SDS011;40184;53.362;5.216;2023-12-20T02:15:47;26.55;;;6.15;;
54271;SDS011;40184;53.362;5.216;2023-12-20T02:18:13;34.97;;;7.22;;
54271;SDS011;40184;53.362;5.216;2023-12-20T02:20:41;39.22;;;8.82;;
54271;SDS011;40184;53.362;5.216;2023-12-20T02:23:08;39.35;;;7.40;;
54271;SDS011;40184;53.362;5.216;2023-12-20T02:25:34;33.47;;;6.55;;
54271;SDS011;40184;53.362;5.216;2023-12-20T02:28:00;33.78;;;6.50;;
54271;SDS011;40184;53.362;5.216;2023-12-20T02:30:26;35.55;;;7.97;;
54271;SDS011;40184;53.362;5.216;2023-12-20T02:32:52;35.05;;;6.18;;
54271;SDS011;40184;53.362;5.216;2023-12-20T02:35:19;38.30;;;7.75;;
54271;SDS011;40184;53.362;5.216;2023-12-20T02:37:45;30.45;;;7.30;;
54271;SDS011;40184;53.362;5.216;2023-12-20T02:40:11;35.78;;;6.35;;
54271;SDS011;40184;53.362;5.216;2023-12-20T02:42:37;39.13;;;8.05;;
54271;SDS011;40184;53.362;5.216;2023-12-20T02:45:04;35.75;;;7.97;;
54271;SDS011;40184;53.362;5.216;2023-12-20T02:47:30;40.22;;;7.35;;
54271;SDS011;40184;53.362;5.216;2023-12-20T02:49:56;35.88;;;7.10;;
54271;SDS011;40184;53.362;5.216;2023-12-20T02:52:25;35.28;;;7.75;;
54271;SDS011;40184;53.362;5.216;2023-12-20T02:54:51;31.08;;;7.40;;
54271;SDS011;40184;53.362;5.216;2023-12-20T02:57:17;27.13;;;6.70;;
54271;SDS011;40184;53.362;5.216;2023-12-20T02:59:43;43.22;;;8.93;;
54271;SDS011;40184;53.362;5.216;2023-12-20T03:02:09;31.73;;;5.57;;
54271;SDS011;40184;53.362;5.216;2023-12-20T03:04:35;30.08;;;7.32;;
54271;SDS011;40184;53.362;5.216;2023-12-20T03:07:01;37.78;;;6.55;;
54271;SDS011;40184;53.362;5.216;2023-12-20T03:09:27;32.22;;;6.53;;
54271;SDS011;40184;53.362;5.216;2023-12-20T03:11:53;40.35;;;7.13;;
54271;SDS011;40184;53.362;5.216;2023-12-20T03:14:19;34.08;;;6.22;;
54271;SDS011;40184;53.362;5.216;2023-12-20T03:16:49;27.38;;;5.93;;
54271;SDS011;40184;53.362;5.216;2023-12-20T03:19:16;36.78;;;7.03;;
54271;SDS011;40184;53.362;5.216;2023-12-20T03:21:42;41.13;;;7.15;;
54271;SDS011;40184;53.362;5.216;2023-12-20T03:24:08;39.05;;;7.38;;
54271;SDS011;40184;53.362;5.216;2023-12-20T03:26:34;36.33;;;6.60;;
54271;SDS011;40184;53.362;5.216;2023-12-20T03:29:00;36.13;;;7.93;;
54271;SDS011;40184;53.362;5.216;2023-12-20T03:31:26;30.70;;;6.45;;
54271;SDS011;40184;53.362;5.216;2023-12-20T03:33:52;31.85;;;8.07;;
54271;SDS011;40184;53.362;5.216;2023-12-20T03:36:19;38.42;;;5.97;;
54271;SDS011;40184;53.362;5.216;2023-12-20T03:38:45;26.42;;;6.53;;
54271;SDS011;40184;53.362;5.216;2023-12-20T03:41:11;40.33;;;6.45;;
54271;SDS011;40184;53.362;5.216;2023-12-20T03:43:37;31.80;;;6.68;;
54271;SDS011;40184;53.362;5.216;2023-12-20T03:46:03;29.02;;;6.13;;
54271;SDS011;40184;53.362;5.216;2023-12-20T03:48:30;28.58;;;7.68;;
54271;SDS011;40184;53.362;5.216;2023-12-20T03:50:56;33.30;;;6.93;;
54271;SDS011;40184;53.362;5.216;2023-12-20T03:53:22;33.17;;;5.93;;
54271;SDS011;40184;53.362;5.216;2023-12-20T03:55:49;40.80;;;8.13;;
54271;SDS011;40184;53.362;5.216;2023-12-20T03:58:15;34.53;;;6.90;;
54271;SDS011;40184;53.362;5.216;2023-12-20T04:00:41;36.03;;;6.40;;
54271;SDS011;40184;53.362;5.216;2023-12-20T04:03:07;36.67;;;7.05;;
54271;SDS011;40184;53.362;5.216;2023-12-20T04:05:33;32.50;;;7.63;;
54271;SDS011;40184;53.362;5.216;2023-12-20T04:08:00;44.20;;;9.25;;
54271;SDS011;40184;53.362;5.216;2023-12-20T04:10:27;35.70;;;8.48;;
54271;SDS011;40184;53.362;5.216;2023-12-20T04:12:53;25.88;;;5.57;;
54271;SDS011;40184;53.362;5.216;2023-12-20T04:15:20;42.50;;;8.77;;
54271;SDS011;40184;53.362;5.216;2023-12-20T04:17:46;44.20;;;7.32;;
54271;SDS011;40184;53.362;5.216;2023-12-20T04:20:12;30.65;;;6.70;;
54271;SDS011;40184;53.362;5.216;2023-12-20T04:22:38;46.10;;;8.27;;
54271;SDS011;40184;53.362;5.216;2023-12-20T04:25:04;35.67;;;7.78;;
54271;SDS011;40184;53.362;5.216;2023-12-20T04:27:30;40.20;;;7.20;;
54271;SDS011;40184;53.362;5.216;2023-12-20T04:29:56;47.78;;;10.25;;
54271;SDS011;40184;53.362;5.216;2023-12-20T04:32:23;43.75;;;8.55;;
54271;SDS011;40184;53.362;5.216;2023-12-20T04:34:49;50.53;;;9.88;;
54271;SDS011;40184;53.362;5.216;2023-12-20T04:37:15;38.28;;;8.73;;
54271;SDS011;40184;53.362;5.216;2023-12-20T04:39:41;39.92;;;8.02;;
54271;SDS011;40184;53.362;5.216;2023-12-20T04:42:07;47.80;;;8.93;;
54271;SDS011;40184;53.362;5.216;2023-12-20T04:44:33;47.45;;;9.30;;
54271;SDS011;40184;53.362;5.216;2023-12-20T04:46:59;37.92;;;7.00;;
54271;SDS011;40184;53.362;5.216;2023-12-20T04:49:26;35.38;;;8.00;;
54271;SDS011;40184;53.362;5.216;2023-12-20T04:51:52;34.75;;;8.38;;
54271;SDS011;40184;53.362;5.216;2023-12-20T04:54:18;35.15;;;7.20;;
54271;SDS011;40184;53.362;5.216;2023-12-20T04:56:44;36.05;;;6.90;;
54271;SDS011;40184;53.362;5.216;2023-12-20T04:59:10;33.33;;;8.02;;
54271;SDS011;40184;53.362;5.216;2023-12-20T05:01:36;34.35;;;7.45;;
54271;SDS011;40184;53.362;5.216;2023-12-20T05:04:02;29.88;;;7.10;;
54271;SDS011;40184;53.362;5.216;2023-12-20T05:06:29;41.38;;;7.68;;
54271;SDS011;40184;53.362;5.216;2023-12-20T05:08:54;35.63;;;7.25;;
54271;SDS011;40184;53.362;5.216;2023-12-20T05:11:21;34.03;;;7.88;;
54271;SDS011;40184;53.362;5.216;2023-12-20T05:13:47;46.50;;;9.93;;
54271;SDS011;40184;53.362;5.216;2023-12-20T05:16:13;39.35;;;7.47;;
54271;SDS011;40184;53.362;5.216;2023-12-20T05:18:40;47.35;;;8.30;;
54271;SDS011;40184;53.362;5.216;2023-12-20T05:21:06;60.53;;;10.13;;
54271;SDS011;40184;53.362;5.216;2023-12-20T05:23:32;38.47;;;7.10;;
54271;SDS011;40184;53.362;5.216;2023-12-20T05:25:58;43.42;;;9.70;;
54271;SDS011;40184;53.362;5.216;2023-12-20T05:28:24;41.25;;;8.93;;
54271;SDS011;40184;53.362;5.216;2023-12-20T05:30:51;38.25;;;7.63;;
54271;SDS011;40184;53.362;5.216;2023-12-20T05:33:17;45.85;;;7.95;;
54271;SDS011;40184;53.362;5.216;2023-12-20T05:35:43;42.78;;;7.65;;
54271;SDS011;40184;53.362;5.216;2023-12-20T05:38:09;40.90;;;7.93;;
54271;SDS011;40184;53.362;5.216;2023-12-20T05:40:35;37.70;;;9.02;;
54271;SDS011;40184;53.362;5.216;2023-12-20T05:43:01;49.70;;;9.65;;
54271;SDS011;40184;53.362;5.216;2023-12-20T05:45:27;47.20;;;7.78;;
54271;SDS011;40184;53.362;5.216;2023-12-20T05:47:54;36.80;;;9.02;;
54271;SDS011;40184;53.362;5.216;2023-12-20T05:50:20;49.28;;;9.70;;
54271;SDS011;40184;53.362;5.216;2023-12-20T05:52:46;40.33;;;8.07;;
54271;SDS011;40184;53.362;5.216;2023-12-20T05:55:12;48.05;;;9.45;;
54271;SDS011;40184;53.362;5.216;2023-12-20T05:57:38;42.33;;;10.77;;
54271;SDS011;40184;53.362;5.216;2023-12-20T06:00:05;47.35;;;9.38;;
54271;SDS011;40184;53.362;5.216;2023-12-20T06:02:31;33.28;;;8.95;;
54271;SDS011;40184;53.362;5.216;2023-12-20T06:04:57;40.42;;;9.07;;
54271;SDS011;40184;53.362;5.216;2023-12-20T06:07:24;45.30;;;8.95;;
54271;SDS011;40184;53.362;5.216;2023-12-20T06:09:50;45.17;;;9.07;;
54271;SDS011;40184;53.362;5.216;2023-12-20T06:12:16;32.25;;;8.07;;
54271;SDS011;40184;53.362;5.216;2023-12-20T06:14:42;47.28;;;10.77;;
54271;SDS011;40184;53.362;5.216;2023-12-20T06:17:08;41.08;;;8.40;;
54271;SDS011;40184;53.362;5.216;2023-12-20T06:19:34;56.97;;;9.80;;
54271;SDS011;40184;53.362;5.216;2023-12-20T06:22:00;44.42;;;8.43;;
54271;SDS011;40184;53.362;5.216;2023-12-20T06:24:26;40.83;;;7.82;;
54271;SDS011;40184;53.362;5.216;2023-12-20T06:26:53;40.20;;;9.55;;
54271;SDS011;40184;53.362;5.216;2023-12-20T06:29:20;41.90;;;8.68;;
54271;SDS011;40184;53.362;5.216;2023-12-20T06:31:46;54.60;;;11.25;;
54271;SDS011;40184;53.362;5.216;2023-12-20T06:34:12;51.35;;;8.85;;
54271;SDS011;40184;53.362;5.216;2023-12-20T06:36:38;48.65;;;9.40;;
54271;SDS011;40184;53.362;5.216;2023-12-20T06:39:04;31.23;;;6.82;;
54271;SDS011;40184;53.362;5.216;2023-12-20T06:41:30;46.85;;;9.27;;
54271;SDS011;40184;53.362;5.216;2023-12-20T06:43:56;45.38;;;9.40;;
54271;SDS011;40184;53.362;5.216;2023-12-20T06:46:23;50.15;;;8.88;;
54271;SDS011;40184;53.362;5.216;2023-12-20T06:48:49;50.30;;;9.50;;
54271;SDS011;40184;53.362;5.216;2023-12-20T06:51:15;52.95;;;11.48;;
54271;SDS011;40184;53.362;5.216;2023-12-20T06:53:42;46.83;;;9.35;;
54271;SDS011;40184;53.362;5.216;2023-12-20T06:56:09;58.35;;;10.30;;
54271;SDS011;40184;53.362;5.216;2023-12-20T06:58:36;41.85;;;8.48;;
54271;SDS011;40184;53.362;5.216;2023-12-20T07:01:03;46.85;;;8.77;;
54271;SDS011;40184;53.362;5.216;2023-12-20T07:03:30;60.75;;;10.77;;
54271;SDS011;40184;53.362;5.216;2023-12-20T07:05:56;57.28;;;10.00;;
54271;SDS011;40184;53.362;5.216;2023-12-20T07:08:22;58.55;;;11.15;;
54271;SDS011;40184;53.362;5.216;2023-12-20T07:10:48;51.60;;;9.90;;
54271;SDS011;40184;53.362;5.216;2023-12-20T07:13:14;40.28;;;8.25;;
54271;SDS011;40184;53.362;5.216;2023-12-20T07:15:40;40.55;;;8.80;;
54271;SDS011;40184;53.362;5.216;2023-12-20T07:18:06;42.53;;;9.13;;
54271;SDS011;40184;53.362;5.216;2023-12-20T07:20:32;50.08;;;10.18;;
54271;SDS011;40184;53.362;5.216;2023-12-20T07:22:58;37.78;;;6.38;;
54271;SDS011;40184;53.362;5.216;2023-12-20T07:25:24;19.08;;;3.58;;
54271;SDS011;40184;53.362;5.216;2023-12-20T07:27:50;23.95;;;4.93;;
54271;SDS011;40184;53.362;5.216;2023-12-20T07:30:16;33.03;;;6.97;;
54271;SDS011;40184;53.362;5.216;2023-12-20T07:32:43;51.35;;;9.80;;
54271;SDS011;40184;53.362;5.216;2023-12-20T07:35:09;44.72;;;8.68;;
54271;SDS011;40184;53.362;5.216;2023-12-20T07:37:35;57.85;;;10.85;;
54271;SDS011;40184;53.362;5.216;2023-12-20T07:40:01;36.58;;;8.82;;
54271;SDS011;40184;53.362;5.216;2023-12-20T07:42:28;44.50;;;10.18;;
54271;SDS011;40184;53.362;5.216;2023-12-20T07:44:54;58.42;;;10.23;;
54271;SDS011;40184;53.362;5.216;2023-12-20T07:47:20;50.70;;;9.85;;
54271;SDS011;40184;53.362;5.216;2023-12-20T07:49:49;55.35;;;10.07;;
54271;SDS011;40184;53.362;5.216;2023-12-20T07:52:19;54.08;;;11.18;;
54271;SDS011;40184;53.362;5.216;2023-12-20T07:54:47;58.92;;;9.27;;
54271;SDS011;40184;53.362;5.216;2023-12-20T07:57:13;46.25;;;8.80;;
54271;SDS011;40184;53.362;5.216;2023-12-20T07:59:39;43.30;;;10.77;;
54271;SDS011;40184;53.362;5.216;2023-12-20T08:02:05;53.03;;;10.23;;
54271;SDS011;40184;53.362;5.216;2023-12-20T08:04:32;49.60;;;10.32;;
54271;SDS011;40184;53.362;5.216;2023-12-20T08:06:58;39.08;;;9.70;;
54271;SDS011;40184;53.362;5.216;2023-12-20T08:09:25;48.10;;;10.07;;
54271;SDS011;40184;53.362;5.216;2023-12-20T08:11:51;33.58;;;7.93;;
54271;SDS011;40184;53.362;5.216;2023-12-20T08:14:17;44.90;;;8.27;;
54271;SDS011;40184;53.362;5.216;2023-12-20T08:16:43;47.70;;;10.10;;
54271;SDS011;40184;53.362;5.216;2023-12-20T08:19:09;42.70;;;8.35;;
54271;SDS011;40184;53.362;5.216;2023-12-20T08:21:35;42.67;;;9.18;;
54271;SDS011;40184;53.362;5.216;2023-12-20T08:24:02;36.17;;;7.57;;
54271;SDS011;40184;53.362;5.216;2023-12-20T08:26:28;39.85;;;8.27;;
54271;SDS011;40184;53.362;5.216;2023-12-20T08:28:54;35.95;;;7.38;;
54271;SDS011;40184;53.362;5.216;2023-12-20T08:31:20;40.58;;;7.80;;
54271;SDS011;40184;53.362;5.216;2023-12-20T08:33:47;27.35;;;4.75;;
54271;SDS011;40184;53.362;5.216;2023-12-20T08:36:13;21.42;;;5.10;;
54271;SDS011;40184;53.362;5.216;2023-12-20T08:38:39;25.88;;;5.32;;
54271;SDS011;40184;53.362;5.216;2023-12-20T08:41:06;29.13;;;5.20;;
54271;SDS011;40184;53.362;5.216;2023-12-20T08:43:33;21.35;;;3.65;;
54271;SDS011;40184;53.362;5.216;2023-12-20T08:45:59;21.02;;;5.45;;
54271;SDS011;40184;53.362;5.216;2023-12-20T08:48:25;22.02;;;4.35;;
54271;SDS011;40184;53.362;5.216;2023-12-20T08:50:51;19.52;;;4.05;;
54271;SDS011;40184;53.362;5.216;2023-12-20T08:53:18;26.70;;;5.72;;
54271;SDS011;40184;53.362;5.216;2023-12-20T08:55:44;23.20;;;4.53;;
54271;SDS011;40184;53.362;5.216;2023-12-20T08:58:10;25.70;;;5.20;;
54271;SDS011;40184;53.362;5.216;2023-12-20T09:00:37;30.10;;;4.85;;
54271;SDS011;40184;53.362;5.216;2023-12-20T09:03:04;24.52;;;5.65;;
54271;SDS011;40184;53.362;5.216;2023-12-20T09:05:30;29.23;;;3.95;;
54271;SDS011;40184;53.362;5.216;2023-12-20T09:07:57;16.20;;;3.22;;
54271;SDS011;40184;53.362;5.216;2023-12-20T09:10:23;22.95;;;4.13;;
54271;SDS011;40184;53.362;5.216;2023-12-20T09:12:50;15.93;;;3.92;;
54271;SDS011;40184;53.362;5.216;2023-12-20T09:15:16;20.73;;;4.82;;
54271;SDS011;40184;53.362;5.216;2023-12-20T09:17:42;20.92;;;5.00;;
54271;SDS011;40184;53.362;5.216;2023-12-20T09:20:09;23.23;;;4.18;;
54271;SDS011;40184;53.362;5.216;2023-12-20T09:22:35;15.52;;;3.55;;
54271;SDS011;40184;53.362;5.216;2023-12-20T09:25:06;22.25;;;3.47;;
54271;SDS011;40184;53.362;5.216;2023-12-20T09:27:33;22.85;;;3.65;;
54271;SDS011;40184;53.362;5.216;2023-12-20T09:29:59;29.35;;;4.57;;
54271;SDS011;40184;53.362;5.216;2023-12-20T09:32:25;32.40;;;4.80;;
54271;SDS011;40184;53.362;5.216;2023-12-20T09:34:51;22.52;;;4.85;;
54271;SDS011;40184;53.362;5.216;2023-12-20T09:37:17;26.63;;;4.93;;
54271;SDS011;40184;53.362;5.216;2023-12-20T09:39:43;22.52;;;4.75;;
54271;SDS011;40184;53.362;5.216;2023-12-20T09:42:11;39.03;;;6.40;;
54271;SDS011;40184;53.362;5.216;2023-12-20T09:44:37;28.92;;;5.00;;
54271;SDS011;40184;53.362;5.216;2023-12-20T09:47:07;26.33;;;4.18;;
54271;SDS011;40184;53.362;5.216;2023-12-20T09:49:33;29.17;;;5.05;;
54271;SDS011;40184;53.362;5.216;2023-12-20T09:52:00;21.13;;;4.55;;
54271;SDS011;40184;53.362;5.216;2023-12-20T09:54:27;15.65;;;3.70;;
54271;SDS011;40184;53.362;5.216;2023-12-20T09:56:54;11.63;;;3.17;;
54271;SDS011;40184;53.362;5.216;2023-12-20T09:59:20;16.80;;;3.47;;
54271;SDS011;40184;53.362;5.216;2023-12-20T10:01:46;18.75;;;4.03;;
54271;SDS011;40184;53.362;5.216;2023-12-20T10:04:12;23.38;;;4.57;;
54271;SDS011;40184;53.362;5.216;2023-12-20T10:06:42;22.85;;;5.10;;
54271;SDS011;40184;53.362;5.216;2023-12-20T10:09:09;24.05;;;4.35;;
54271;SDS011;40184;53.362;5.216;2023-12-20T10:11:35;22.70;;;4.80;;
54271;SDS011;40184;53.362;5.216;2023-12-20T10:14:02;42.88;;;15.38;;
54271;SDS011;40184;53.362;5.216;2023-12-20T10:16:29;29.83;;;7.93;;
54271;SDS011;40184;53.362;5.216;2023-12-20T10:18:55;22.80;;;5.13;;
54271;SDS011;40184;53.362;5.216;2023-12-20T10:21:22;16.77;;;3.70;;
54271;SDS011;40184;53.362;5.216;2023-12-20T10:23:49;16.08;;;3.83;;
54271;SDS011;40184;53.362;5.216;2023-12-20T10:26:19;26.00;;;5.43;;
54271;SDS011;40184;53.362;5.216;2023-12-20T10:28:46;22.90;;;5.57;;
54271;SDS011;40184;53.362;5.216;2023-12-20T10:31:33;25.40;;;5.55;;
54271;SDS011;40184;53.362;5.216;2023-12-20T10:33:59;25.08;;;5.82;;
54271;SDS011;40184;53.362;5.216;2023-12-20T10:36:26;35.67;;;6.28;;
54271;SDS011;40184;53.362;5.216;2023-12-20T10:38:53;29.00;;;6.80;;
54271;SDS011;40184;53.362;5.216;2023-12-20T10:41:26;16.98;;;4.05;;
54271;SDS011;40184;53.362;5.216;2023-12-20T10:43:59;18.42;;;4.43;;
54271;SDS011;40184;53.362;5.216;2023-12-20T10:46:26;22.05;;;5.85;;
54271;SDS011;40184;53.362;5.216;2023-12-20T10:48:58;24.05;;;5.07;;
54271;SDS011;40184;53.362;5.216;2023-12-20T10:51:25;22.92;;;5.68;;
54271;SDS011;40184;53.362;5.216;2023-12-20T10:53:57;37.60;;;7.40;;
54271;SDS011;40184;53.362;5.216;2023-12-20T10:56:23;22.83;;;6.00;;
54271;SDS011;40184;53.362;5.216;2023-12-20T10:58:49;31.70;;;6.03;;
54271;SDS011;40184;53.362;5.216;2023-12-20T11:01:16;23.30;;;4.53;;
54271;SDS011;40184;53.362;5.216;2023-12-20T11:03:50;26.50;;;5.13;;
54271;SDS011;40184;53.362;5.216;2023-12-20T11:11:37;12.85;;;4.25;;
54271;SDS011;40184;53.362;5.216;2023-12-20T11:14:12;19.42;;;4.22;;
54271;SDS011;40184;53.362;5.216;2023-12-20T11:16:41;22.48;;;3.60;;
54271;SDS011;40184;53.362;5.216;2023-12-20T11:19:07;24.13;;;3.70;;
54271;SDS011;40184;53.362;5.216;2023-12-20T11:21:33;27.02;;;6.78;;
54271;SDS011;40184;53.362;5.216;2023-12-20T11:23:59;21.48;;;3.70;;
54271;SDS011;40184;53.362;5.216;2023-12-20T11:26:29;24.00;;;5.10;;
54271;SDS011;40184;53.362;5.216;2023-12-20T11:31:40;19.45;;;5.30;;
54271;SDS011;40184;53.362;5.216;2023-12-20T11:34:13;23.42;;;5.20;;
54271;SDS011;40184;53.362;5.216;2023-12-20T11:36:39;15.88;;;3.22;;
54271;SDS011;40184;53.362;5.216;2023-12-20T11:39:05;15.35;;;3.47;;
54271;SDS011;40184;53.362;5.216;2023-12-20T11:41:33;27.73;;;4.40;;
54271;SDS011;40184;53.362;5.216;2023-12-20T11:44:00;19.33;;;4.00;;
54271;SDS011;40184;53.362;5.216;2023-12-20T11:46:26;30.23;;;5.28;;
54271;SDS011;40184;53.362;5.216;2023-12-20T11:48:52;20.73;;;4.30;;
54271;SDS011;40184;53.362;5.216;2023-12-20T11:51:18;21.02;;;4.05;;
54271;SDS011;40184;53.362;5.216;2023-12-20T11:53:44;24.35;;;4.60;;
54271;SDS011;40184;53.362;5.216;2023-12-20T11:56:10;22.58;;;3.17;;
54271;SDS011;40184;53.362;5.216;2023-12-20T11:58:37;17.58;;;2.75;;
54271;SDS011;40184;53.362;5.216;2023-12-20T12:01:04;15.15;;;2.67;;
54271;SDS011;40184;53.362;5.216;2023-12-20T12:03:32;18.10;;;4.07;;
54271;SDS011;40184;53.362;5.216;2023-12-20T12:05:58;15.48;;;2.75;;
54271;SDS011;40184;53.362;5.216;2023-12-20T12:08:25;17.85;;;3.33;;
54271;SDS011;40184;53.362;5.216;2023-12-20T12:10:52;13.10;;;2.90;;
54271;SDS011;40184;53.362;5.216;2023-12-20T12:13:18;11.80;;;2.63;;
54271;SDS011;40184;53.362;5.216;2023-12-20T12:15:44;9.55;;;1.92;;
54271;SDS011;40184;53.362;5.216;2023-12-20T12:18:10;16.55;;;3.03;;
54271;SDS011;40184;53.362;5.216;2023-12-20T12:20:36;17.83;;;3.33;;
54271;SDS011;40184;53.362;5.216;2023-12-20T12:23:03;17.20;;;3.30;;
54271;SDS011;40184;53.362;5.216;2023-12-20T12:25:30;15.73;;;3.13;;
54271;SDS011;40184;53.362;5.216;2023-12-20T12:27:57;20.52;;;3.83;;
54271;SDS011;40184;53.362;5.216;2023-12-20T12:30:23;12.65;;;2.85;;
54271;SDS011;40184;53.362;5.216;2023-12-20T12:32:50;14.52;;;3.40;;
54271;SDS011;40184;53.362;5.216;2023-12-20T12:35:17;13.02;;;2.60;;
54271;SDS011;40184;53.362;5.216;2023-12-20T12:37:43;19.23;;;2.65;;
54271;SDS011;40184;53.362;5.216;2023-12-20T12:40:13;16.67;;;2.75;;
54271;SDS011;40184;53.362;5.216;2023-12-20T12:42:40;12.05;;;3.17;;
54271;SDS011;40184;53.362;5.216;2023-12-20T12:45:06;16.67;;;3.60;;
54271;SDS011;40184;53.362;5.216;2023-12-20T12:47:32;21.50;;;4.30;;
54271;SDS011;40184;53.362;5.216;2023-12-20T12:49:58;19.23;;;3.78;;
54271;SDS011;40184;53.362;5.216;2023-12-20T12:52:25;21.77;;;3.83;;
54271;SDS011;40184;53.362;5.216;2023-12-20T12:54:51;19.33;;;3.60;;
54271;SDS011;40184;53.362;5.216;2023-12-20T12:57:17;23.38;;;3.95;;
54271;SDS011;40184;53.362;5.216;2023-12-20T12:59:44;12.00;;;2.75;;
54271;SDS011;40184;53.362;5.216;2023-12-20T13:02:14;19.02;;;2.95;;
54271;SDS011;40184;53.362;5.216;2023-12-20T13:04:41;13.10;;;2.50;;
54271;SDS011;40184;53.362;5.216;2023-12-20T13:07:07;11.02;;;2.63;;
54271;SDS011;40184;53.362;5.216;2023-12-20T13:09:36;15.60;;;3.28;;
54271;SDS011;40184;53.362;5.216;2023-12-20T13:12:02;14.48;;;2.80;;
54271;SDS011;40184;53.362;5.216;2023-12-20T13:14:30;18.38;;;3.50;;
54271;SDS011;40184;53.362;5.216;2023-12-20T13:16:57;25.98;;;4.43;;
54271;SDS011;40184;53.362;5.216;2023-12-20T13:19:23;25.90;;;3.92;;
54271;SDS011;40184;53.362;5.216;2023-12-20T13:21:49;24.55;;;4.70;;
54271;SDS011;40184;53.362;5.216;2023-12-20T13:24:15;29.45;;;3.90;;
54271;SDS011;40184;53.362;5.216;2023-12-20T13:26:41;32.85;;;5.95;;
54271;SDS011;40184;53.362;5.216;2023-12-20T13:29:07;32.15;;;6.70;;
54271;SDS011;40184;53.362;5.216;2023-12-20T13:31:33;34.17;;;6.85;;
54271;SDS011;40184;53.362;5.216;2023-12-20T13:34:01;32.20;;;5.22;;
54271;SDS011;40184;53.362;5.216;2023-12-20T13:36:27;24.75;;;5.47;;
54271;SDS011;40184;53.362;5.216;2023-12-20T13:38:53;29.38;;;5.60;;
54271;SDS011;40184;53.362;5.216;2023-12-20T13:41:20;32.05;;;5.68;;
54271;SDS011;40184;53.362;5.216;2023-12-20T13:43:46;27.70;;;6.15;;
54271;SDS011;40184;53.362;5.216;2023-12-20T13:46:12;29.02;;;5.78;;
54271;SDS011;40184;53.362;5.216;2023-12-20T13:48:39;30.75;;;5.40;;
54271;SDS011;40184;53.362;5.216;2023-12-20T13:51:05;21.85;;;5.72;;
54271;SDS011;40184;53.362;5.216;2023-12-20T13:53:31;27.88;;;5.82;;
54271;SDS011;40184;53.362;5.216;2023-12-20T13:55:57;30.45;;;5.38;;
54271;SDS011;40184;53.362;5.216;2023-12-20T13:58:25;25.17;;;5.10;;
54271;SDS011;40184;53.362;5.216;2023-12-20T14:00:51;30.13;;;6.05;;
54271;SDS011;40184;53.362;5.216;2023-12-20T14:03:17;32.30;;;7.82;;
54271;SDS011;40184;53.362;5.216;2023-12-20T14:05:45;33.33;;;6.70;;
54271;SDS011;40184;53.362;5.216;2023-12-20T14:08:11;28.80;;;5.93;;
54271;SDS011;40184;53.362;5.216;2023-12-20T14:10:37;41.08;;;7.28;;
54271;SDS011;40184;53.362;5.216;2023-12-20T14:13:03;40.13;;;9.60;;
54271;SDS011;40184;53.362;5.216;2023-12-20T14:15:30;35.38;;;7.50;;
54271;SDS011;40184;53.362;5.216;2023-12-20T14:18:02;32.05;;;5.70;;
54271;SDS011;40184;53.362;5.216;2023-12-20T14:20:28;31.58;;;7.68;;
54271;SDS011;40184;53.362;5.216;2023-12-20T14:22:54;39.10;;;8.60;;
54271;SDS011;40184;53.362;5.216;2023-12-20T14:25:20;35.45;;;6.57;;
54271;SDS011;40184;53.362;5.216;2023-12-20T14:27:48;35.78;;;7.28;;
54271;SDS011;40184;53.362;5.216;2023-12-20T14:30:14;31.20;;;5.60;;
54271;SDS011;40184;53.362;5.216;2023-12-20T14:32:41;33.28;;;7.57;;
54271;SDS011;40184;53.362;5.216;2023-12-20T14:35:08;41.63;;;9.02;;
54271;SDS011;40184;53.362;5.216;2023-12-20T14:37:34;34.80;;;8.80;;